• Join FlightAware (Why Join?)
  • Login
  • US Flag 
07:45PM EDT


 

Airport Tracker/Info


-or-


 

Live Flight TrackerFlight Track Log ✈ ASQ5941 ✈ 23-Apr-2013 ✈ KORD - KAVP

Flight Track Log - Related Links

Times and Time Zones

All times are in EDT time to prevent confusion due to time zone crossing. See the ASQ5941 flight status page for this flight to view local times or setup timezone preferences in your user account.

Time Position Orientation Groundspeed Altitude Reporting Facility
EDT Latitude Longitude Course Direction KTS MPH feet Rate Location/Type
03:29PM 41.9672 -87.9436 80° East 183 211 35,000  Level Chicago Center
03:30PM 41.9667 -87.9667 268° West 193 222 2,800 -23,280 Descending Chicago TRACON
03:31PM 42.0167 -87.9500 14° North 241 277 4,800 1,860 Climbing Chicago TRACON
03:32PM 42.0434 -87.4402 83° East  Level FlightAware Approximate
03:32PM 42.0425 -87.7703 79° East 299 344 8,100  Level Chicago Center
03:33PM 42.0630 -87.2827 78° East  Level FlightAware Approximate
03:33PM 42.0539 -87.6558 82° East 308 354 10,400  Level Chicago Center
03:34PM 42.0873 -87.1263 77° East  Level FlightAware Approximate
03:34PM 42.0658 -87.5394 82° East 314 361 12,200  Level Chicago Center
03:35PM 42.1039 -86.9688 80° East  Level FlightAware Approximate
03:35PM 42.0786 -87.4136 82° East 336 387 13,300  Level Chicago Center
03:37PM 42.0925 -87.2739 82° East 372 428 14,000 720 Climbing Chicago Center
03:38PM 42.1092 -87.0953 83° East 399 459 14,900 960 Climbing Chicago Center
03:39PM 42.1186 -86.9439 85° East 405 466 16,000 960 Climbing Chicago Center
03:40PM 42.1239 -86.7883 87° East 413 475 17,000 960 Climbing Chicago Center
03:41PM 42.1278 -86.6283 88° East 424 488 18,000 960 Climbing Chicago Center
03:42PM 42.1331 -86.4703 87° East 423 487 19,000 960 Climbing Chicago Center
03:43PM 42.1383 -86.3106 87° East 427 491 20,000 960 Climbing Chicago Center
03:44PM 42.1436 -86.1475 87° East 434 499 21,100 1,140 Climbing Chicago Center
03:45PM 42.1436 -85.9633 90° East 438 504 22,400 1,200 Climbing Chicago Center
03:46PM 42.1419 -85.8036 91° East 432 497 23,600 1,140 Climbing Chicago Center
03:47PM 42.1394 -85.6403 91° East 436 502 24,800 1,200 Climbing Chicago Center
03:48PM 42.1383 -85.4450 90° East 437 503 26,100 1,020 Climbing Chicago Center
03:49PM 42.1403 -85.3500 88° East 451 519 26,600 900 Climbing Cleveland Center
03:50PM 42.1367 -85.1844 92° East 451 519 27,600 960 Climbing Cleveland Center
03:51PM 42.1350 -85.0161 91° East 451 519 28,600 960 Climbing Cleveland Center
03:52PM 42.1308 -84.8506 92° East 451 519 29,600 960 Climbing Cleveland Center
03:53PM 42.1286 -84.6797 91° East 451 519 30,600 960 Climbing Cleveland Center
03:54PM 42.1242 -84.5058 92° East 451 519 31,600 1,020 Climbing Cleveland Center
03:55PM 42.1389 -84.3161 84° East 457 526 32,700 720 Climbing Cleveland Center
03:56PM 42.1592 -84.1353 81° East 468 539 33,100 660 Climbing Cleveland Center
03:57PM 42.1772 -83.9569 82° East 478 550 34,100 900 Climbing Cleveland Center
03:58PM 42.1969 -83.7756 82° East 483 556 35,000 420 Climbing Cleveland Center
03:59PM 42.2186 -83.5889 81° East 483 556 35,000  Level Cleveland Center
04:00PM 42.2272 -83.4183 86° East 499 574 35,000  Level Cleveland Center
04:01PM 42.2300 -83.2081 89° East 499 574 35,000  Level Cleveland Center
04:02PM 42.2319 -83.0286 89° East 513 590 35,000  Level Cleveland Center
04:03PM 42.2339 -82.8350 89° East 518 596 35,000  Level Cleveland Center
04:04PM 42.2333 -82.6417 90° East 518 596 35,000  Level Cleveland Center
04:05PM 42.2325 -82.4453 90° East 518 596 35,000  Level Cleveland Center
04:06PM 42.2292 -82.2489 91° East 518 596 35,000  Level Cleveland Center
04:07PM 42.2175 -82.0383 94° East 513 590 35,000  Level Cleveland Center
04:08PM 42.2050 -81.8614 95° East 522 601 35,000  Level Cleveland Center
04:09PM 42.1925 -81.6622 95° East 522 601 35,000  Level Cleveland Center
04:10PM 42.1775 -81.4686 96° East 523 602 35,000  Level Cleveland Center
04:11PM 42.1642 -81.2722 95° East 523 602 35,000  Level Cleveland Center
04:12PM 42.1506 -81.0789 95° East 523 602 35,000  Level Cleveland Center
04:13PM 42.1347 -80.8603 96° East 529 609 35,000  Level Cleveland Center
04:14PM 42.1183 -80.6672 96° East 523 602 35,000  Level Cleveland Center
04:15PM 42.1039 -80.4711 96° East 523 602 35,000  Level Cleveland Center
04:16PM 42.0889 -80.2753 96° East 523 602 35,000  Level Cleveland Center
04:17PM 42.0714 -80.0797 97° East 522 601 35,000  Level Cleveland Center
04:18PM 42.0581 -79.9036 96° East 522 601 35,000  Level Cleveland Center
04:19PM 42.0400 -79.7136 97° East 522 601 35,000  Level Cleveland Center
04:20PM 42.0239 -79.5183 96° East 522 601 35,000 -180 Level Cleveland Center
04:21PM 42.0072 -79.3258 97° East 522 601 34,700 -720 Descending Cleveland Center
04:22PM 41.9883 -79.1333 97° East 522 601 33,600 -1,140 Descending Cleveland Center
04:23PM 41.9689 -78.9272 97° East 522 601 32,500 -1,320 Descending Cleveland Center
04:24PM 41.9558 -78.7572 96° East 517 595 31,000 -1,440 Descending Cleveland Center
04:25PM 41.9364 -78.5789 98° East 504 580 29,700 -1,860 Descending Cleveland Center
04:27PM 41.9025 -78.2286 97° East 479 551 25,500 -1,680 Descending Cleveland Center
04:29PM 41.8686 -77.8847 97° East 440 506 23,000 -840 Descending New York Center
04:30PM 41.8192 -77.7347 114° Southeast 435 501 23,000  Level New York Center
04:31PM 41.7611 -77.5867 118° Southeast 435 501 23,000  Level New York Center
04:32PM 41.7061 -77.4561 119° Southeast 449 517 23,000 -540 Level New York Center
04:33PM 41.6769 -77.2697 102° East 448 516 22,000 -1,500 Descending New York Center
04:34PM 41.6603 -77.1125 98° East 443 510 20,000 -2,040 Descending New York Center
04:35PM 41.6433 -76.9611 98° East 431 496 18,000 -1,800 Descending New York Center
04:36PM 41.6283 -76.8097 98° East 419 482 16,400 -1,560 Descending New York Center
04:37PM 41.6125 -76.6642 98° East 407 468 15,000 -1,620 Descending New York Center
04:38PM 41.5981 -76.5353 98° East 394 453 13,300 -1,680 Descending New York Center
04:39PM 41.5817 -76.3978 99° East 383 441 11,700 -1,740 Descending New York Center
04:40PM 41.5669 -76.2692 99° East 338 389 9,900 -1,860 Descending New York Center
04:41PM 41.5553 -76.1600 98° East 303 349 8,100 -1,740 Descending New York Center
04:42PM 41.5300 -76.0747 112° Southeast 280 322 6,500 -1,440 Descending New York Center
04:43PM 41.5131 -75.9875 105° East 261 300 5,200 -1,320 Descending New York Center
04:44PM 41.4958 -75.9031 105° East 249 287 3,900 -780 Descending New York Center
04:45PM 41.4786 -75.8217 106° East 237 273 3,700 -120 Descending New York Center
04:46PM 41.4631 -75.7428 105° East 226 260 3,700 -60 Level New York Center
04:47PM 41.4300 -75.6906 130° Southeast 205 236 3,600 -720 Descending New York Center
04:48PM 41.3950 -75.6797 167° South 152 175 2,300 -1,200 Descending New York Center
04:49PM 41.3606 -75.7050 209° Southwest 119 137 1,300 -1,080 Descending New York Center